createdAt,value
2019-03-29T00:01:04.949Z,102658.09
2019-03-29T00:06:08.365Z,102654.19
2019-03-29T00:11:12.994Z,102649.28
2019-03-29T00:16:16.472Z,102634.50
2019-03-29T00:21:19.933Z,102631.64
2019-03-29T00:26:23.309Z,102629.42
2019-03-29T00:31:26.728Z,102627.62
2019-03-29T00:36:30.158Z,102623.59
2019-03-29T00:41:33.587Z,102612.13
2019-03-29T00:46:37.208Z,102612.66
2019-03-29T00:51:41.337Z,102607.67
2019-03-29T00:56:44.758Z,102606.22
2019-03-29T01:01:48.189Z,102595.06
2019-03-29T01:06:51.611Z,102588.84
2019-03-29T01:11:55.017Z,102583.69
2019-03-29T01:16:58.433Z,102581.09
2019-03-29T01:22:01.867Z,102571.68
2019-03-29T01:27:05.298Z,102567.33
2019-03-29T01:32:08.787Z,102565.95
2019-03-29T01:37:12.274Z,102559.70
2019-03-29T01:42:15.724Z,102548.02
2019-03-29T01:47:19.248Z,102547.03
2019-03-29T01:52:22.704Z,102556.20
2019-03-29T01:57:26.113Z,102545.28
2019-03-29T02:02:29.526Z,102536.81
2019-03-29T02:07:33.606Z,102535.67
2019-03-29T02:12:37.076Z,102524.75
2019-03-29T02:17:40.544Z,102514.79
2019-03-29T02:22:44.009Z,102514.91
2019-03-29T02:27:47.508Z,102514.70
2019-03-29T02:32:52.649Z,102520.24
2019-03-29T02:37:56.563Z,102509.78
2019-03-29T02:43:00.434Z,102512.84
2019-03-29T02:48:03.853Z,102508.64
2019-03-29T02:53:07.285Z,102506.14
2019-03-29T02:58:10.714Z,102503.55
2019-03-29T03:03:14.196Z,102502.09
2019-03-29T03:08:17.555Z,102502.14
2019-03-29T03:13:20.969Z,102510.34
2019-03-29T03:18:24.470Z,102504.23
2019-03-29T03:23:27.885Z,102500.60
2019-03-29T03:28:31.311Z,102504.78
2019-03-29T03:33:34.721Z,102501.86
2019-03-29T03:38:38.171Z,102496.30
2019-03-29T03:43:41.604Z,102498.31
2019-03-29T03:48:45.034Z,102496.59
2019-03-29T03:53:48.620Z,102488.73
2019-03-29T03:58:52.382Z,102489.77
2019-03-29T04:03:57.688Z,102496.96
2019-03-29T04:09:01.123Z,102491.78
2019-03-29T04:14:04.633Z,102487.06
2019-03-29T04:19:08.039Z,102491.16
2019-03-29T04:24:11.457Z,102491.16
2019-03-29T04:29:14.895Z,102487.64
2019-03-29T04:34:18.297Z,102487.89
2019-03-29T04:39:21.722Z,102493.70
2019-03-29T04:44:25.156Z,102496.08
2019-03-29T04:49:28.598Z,102499.03
2019-03-29T04:54:32.034Z,102485.91
2019-03-29T04:59:35.513Z,102490.11
2019-03-29T05:04:38.959Z,102484.16
2019-03-29T05:09:42.452Z,102484.33
2019-03-29T05:14:45.876Z,102480.27
2019-03-29T05:19:49.313Z,102480.87
2019-03-29T05:24:52.920Z,102475.25
2019-03-29T05:29:56.694Z,102481.95
2019-03-29T05:35:00.336Z,102480.33
2019-03-29T05:40:05.035Z,102481.67
2019-03-29T05:45:09.170Z,102482.39
2019-03-29T05:50:12.657Z,102475.84
2019-03-29T05:55:16.218Z,102467.34
2019-03-29T06:00:20.442Z,102463.47
2019-03-29T06:05:23.881Z,102466.94
2019-03-29T06:10:27.306Z,102463.28
2019-03-29T06:15:30.866Z,102466.64
2019-03-29T06:20:34.309Z,102468.95
2019-03-29T06:25:37.762Z,102474.11
2019-03-29T06:30:41.258Z,102468.02
2019-03-29T06:35:47.216Z,102464.98
2019-03-29T06:41:02.123Z,102458.19
2019-03-29T06:45:55.777Z,102453.79
2019-03-29T06:50:59.229Z,102446.38
2019-03-29T06:56:02.680Z,102449.03
2019-03-29T07:01:06.117Z,102453.59
2019-03-29T07:06:09.535Z,102446.64
2019-03-29T07:11:17.703Z,102456.33
2019-03-29T07:16:18.225Z,102449.83
2019-03-29T07:21:22.269Z,102450.50
2019-03-29T07:26:25.750Z,102454.13
2019-03-29T07:31:29.175Z,102448.13
2019-03-29T07:36:32.592Z,102452.33
2019-03-29T07:41:36.012Z,102452.73
2019-03-29T07:46:39.437Z,102455.94
2019-03-29T07:51:42.876Z,102457.18
2019-03-29T07:56:46.310Z,102452.94
2019-03-29T08:01:49.736Z,102450.30
2019-03-29T08:06:53.169Z,102452.95
2019-03-29T08:11:56.609Z,102455.80
2019-03-29T08:17:00.045Z,102462.09
2019-03-29T08:22:03.562Z,102465.59
2019-03-29T08:27:06.972Z,102456.67
2019-03-29T08:32:10.427Z,102449.17
2019-03-29T08:37:13.995Z,102449.95
2019-03-29T08:42:18.662Z,102451.42
2019-03-29T08:47:22.387Z,102451.09
2019-03-29T08:52:25.896Z,102454.34
2019-03-29T08:57:29.286Z,102454.93
2019-03-29T09:02:32.745Z,102444.08
2019-03-29T09:07:44.775Z,102447.14
2019-03-29T09:12:41.406Z,102437.92
2019-03-29T09:17:44.848Z,102440.07
2019-03-29T09:22:48.287Z,102437.45
2019-03-29T09:27:51.720Z,102431.73
2019-03-29T09:32:55.156Z,102439.97
2019-03-29T09:37:58.661Z,102434.61
2019-03-29T09:43:09.840Z,102431.03
2019-03-29T09:48:07.730Z,102415.81
2019-03-29T09:53:11.159Z,102411.78
2019-03-29T09:58:16.581Z,102407.97
2019-03-29T10:03:19.746Z,102392.81
2019-03-29T10:08:23.248Z,102394.80
2019-03-29T10:13:26.684Z,102387.88
2019-03-29T10:18:30.154Z,102380.14
2019-03-29T10:23:33.574Z,102375.39
2019-03-29T10:28:37.163Z,102368.81
2019-03-29T10:33:40.616Z,102360.02
2019-03-29T10:38:44.096Z,102347.39
2019-03-29T10:43:47.592Z,102348.27
2019-03-29T10:48:51.062Z,102343.86
2019-03-29T10:53:54.499Z,102326.15
2019-03-29T10:58:57.951Z,102310.81
2019-03-29T11:04:01.394Z,102304.64
2019-03-29T11:09:07.388Z,102305.27
2019-03-29T11:14:10.778Z,102299.01
2019-03-29T11:19:14.236Z,102287.50
2019-03-29T11:24:17.664Z,102286.60
2019-03-29T11:29:24.649Z,102277.52
2019-03-29T11:34:28.025Z,102277.28
2019-03-29T11:39:31.561Z,102266.43
2019-03-29T11:44:35.006Z,102265.89
2019-03-29T11:49:38.414Z,102259.88
2019-03-29T11:54:41.855Z,102260.48
2019-03-29T11:59:45.398Z,102249.23
2019-03-29T12:04:49.117Z,102235.97
2019-03-29T12:09:52.588Z,102231.59
2019-03-29T12:14:56.004Z,102223.31
2019-03-29T12:19:59.456Z,102204.23
2019-03-29T12:25:02.961Z,102199.50
2019-03-29T12:30:10.778Z,102202.41
2019-03-29T12:35:14.209Z,102201.58
2019-03-29T12:40:17.797Z,102199.89
2019-03-29T12:45:21.983Z,102186.02
2019-03-29T12:50:25.416Z,102175.27
2019-03-29T12:55:31.008Z,102169.41
2019-03-29T13:00:34.383Z,102155.48
2019-03-29T13:05:37.831Z,102153.23
2019-03-29T13:10:42.641Z,102147.41
2019-03-29T13:15:46.193Z,102145.36
2019-03-29T13:20:49.647Z,102135.55
2019-03-29T13:25:53.331Z,102132.48
2019-03-29T13:30:56.860Z,102120.83
2019-03-29T13:36:00.287Z,102115.00
2019-03-29T13:41:06.885Z,102104.01
2019-03-29T13:46:11.464Z,102101.88
2019-03-29T13:51:14.975Z,102100.63
2019-03-29T13:56:18.481Z,102086.59
2019-03-29T14:01:21.947Z,102078.44
2019-03-29T14:06:25.390Z,102069.66
2019-03-29T14:11:28.937Z,102067.89
2019-03-29T14:16:32.358Z,102057.33
2019-03-29T14:21:35.909Z,102048.14
2019-03-29T14:26:39.582Z,102040.11
2019-03-29T14:31:43.036Z,102033.55
2019-03-29T14:36:47.285Z,102026.42
2019-03-29T14:41:51.317Z,102023.53
2019-03-29T14:46:54.773Z,102020.46
2019-03-29T14:51:58.209Z,102007.55
2019-03-29T14:57:01.692Z,102010.91
2019-03-29T15:02:05.489Z,102007.79
2019-03-29T15:07:09.000Z,101999.60
2019-03-29T15:12:12.408Z,101990.13
2019-03-29T15:17:16.070Z,101982.08
2019-03-29T15:22:19.535Z,101971.24
2019-03-29T15:27:22.972Z,101962.27
2019-03-29T15:32:26.445Z,101960.24
2019-03-29T15:37:29.931Z,101953.78
2019-03-29T15:42:33.360Z,101947.28
2019-03-29T15:47:36.781Z,101933.77
2019-03-29T15:52:40.235Z,101930.69
2019-03-29T15:57:43.663Z,101921.46
2019-03-29T16:02:47.450Z,101918.16
2019-03-29T16:07:51.042Z,101898.60
2019-03-29T16:12:54.568Z,101898.60
2019-03-29T16:17:58.009Z,101890.09
2019-03-29T16:23:01.438Z,101890.09
2019-03-29T16:28:04.938Z,101878.66
2019-03-29T16:33:08.357Z,101886.46
2019-03-29T16:38:11.776Z,101880.01
2019-03-29T16:43:16.070Z,101873.55
2019-03-29T16:48:19.503Z,101867.27
2019-03-29T16:53:23.015Z,101866.19
2019-03-29T16:58:26.496Z,101858.04
2019-03-29T17:03:29.954Z,101856.70
2019-03-29T17:08:33.372Z,101854.14
2019-03-29T17:13:36.934Z,101848.55
2019-03-29T17:18:40.437Z,101847.73
2019-03-29T17:23:43.833Z,101849.03
2019-03-29T17:28:47.279Z,101849.80
2019-03-29T17:33:50.724Z,101850.36
2019-03-29T17:38:54.155Z,101842.80
2019-03-29T17:43:57.614Z,101839.97
2019-03-29T17:49:01.064Z,101833.65
2019-03-29T17:54:04.488Z,101841.08
2019-03-29T17:59:07.940Z,101842.22
2019-03-29T18:04:11.383Z,101847.53
2019-03-29T18:09:14.831Z,101837.86
2019-03-29T18:14:18.933Z,101841.31
2019-03-29T18:19:22.331Z,101846.30
2019-03-29T18:24:25.780Z,101848.98
2019-03-29T18:29:29.233Z,101845.44
2019-03-29T18:34:33.320Z,101846.88
2019-03-29T18:39:37.515Z,101845.25
2019-03-29T18:44:40.951Z,101848.19
2019-03-29T18:49:44.398Z,101837.45
2019-03-29T18:54:50.834Z,101846.70
2019-03-29T18:59:54.251Z,101845.14
2019-03-29T19:04:57.793Z,101854.41
2019-03-29T19:10:01.259Z,101851.08
2019-03-29T19:15:08.629Z,101850.95
2019-03-29T19:20:26.236Z,101849.75
2019-03-29T19:25:17.505Z,101852.91
2019-03-29T19:30:25.024Z,101848.59
2019-03-29T19:35:28.561Z,101852.98
2019-03-29T19:40:32.112Z,101845.98
2019-03-29T19:45:37.085Z,101858.22
2019-03-29T19:50:40.905Z,101843.84
2019-03-29T19:55:45.142Z,101842.95
2019-03-29T20:00:48.991Z,101848.62
2019-03-29T20:05:52.950Z,101846.45
2019-03-29T20:11:04.735Z,101845.98
2019-03-29T20:16:08.942Z,101833.77
2019-03-29T20:21:12.753Z,101828.52
2019-03-29T20:26:16.895Z,101822.39
2019-03-29T20:31:21.227Z,101814.97
2019-03-29T20:36:25.957Z,101806.63
2019-03-29T20:41:29.992Z,101811.39
2019-03-29T20:46:33.622Z,101809.16
2019-03-29T20:51:38.187Z,101812.16
2019-03-29T20:56:41.967Z,101801.22
2019-03-29T21:01:46.744Z,101801.22
2019-03-29T21:06:51.799Z,101805.54
2019-03-29T21:11:56.083Z,101801.95
2019-03-29T21:17:00.426Z,101803.25
2019-03-29T21:22:04.167Z,101801.95
2019-03-29T21:27:07.697Z,101800.05
2019-03-29T21:32:11.202Z,101800.92
2019-03-29T21:37:14.653Z,101795.31
2019-03-29T21:42:18.446Z,101796.66
2019-03-29T21:47:21.895Z,101786.23
2019-03-29T21:52:25.324Z,101789.74
2019-03-29T21:57:28.787Z,101779.78
2019-03-29T22:02:32.260Z,101784.52
2019-03-29T22:07:35.806Z,101789.70
2019-03-29T22:12:42.688Z,101788.70
2019-03-29T22:17:44.413Z,101785.19
2019-03-29T22:22:48.495Z,101783.83
2019-03-29T22:27:51.887Z,101779.53
2019-03-29T22:32:55.349Z,101782.58
2019-03-29T22:37:58.786Z,101774.61
2019-03-29T22:43:02.307Z,101781.61
2019-03-29T22:48:05.751Z,101774.62
2019-03-29T22:53:09.183Z,101777.98
2019-03-29T22:58:12.639Z,101768.83
2019-03-29T23:03:16.628Z,101759.75
2019-03-29T23:08:20.066Z,101755.36
2019-03-29T23:13:23.527Z,101752.70
2019-03-29T23:18:26.980Z,101746.24
2019-03-29T23:23:30.425Z,101738.91
2019-03-29T23:28:33.892Z,101735.87
2019-03-29T23:33:37.377Z,101735.39
2019-03-29T23:38:40.809Z,101736.00
2019-03-29T23:43:44.245Z,101728.62
2019-03-29T23:48:47.694Z,101719.94
2019-03-29T23:53:51.131Z,101711.63
2019-03-29T23:58:54.557Z,101704.58
